Time;durP1;ratioP1;P1;durP2;ratioP2;P2;SDS_P1;SDS_P2;PMS_P1;PMS_P2;Temp;Humidity;BMP_temperature;BMP_pressure;BME280_temperature;BME280_humidity;BME280_pressure;Samples;Min_cycle;Max_cycle;Signal;HPM_P1;HPM_P2
2023/05/25 00:00:32;;;;;;;176.85;65.20;;;;;;;17.43;47.96;102245.31;5028175;28;20029;-74
2023/05/25 00:02:58;;;;;;;168.48;64.07;;;;;;;17.40;48.38;102249.72;5029794;28;20083;-74
2023/05/25 00:05:26;;;;;;;169.00;64.03;;;;;;;17.41;47.90;102253.25;5036433;28;20066;-72
2023/05/25 00:07:51;;;;;;;166.80;63.35;;;;;;;17.40;48.09;102256.78;5029458;28;20029;-72
2023/05/25 00:10:17;;;;;;;178.70;65.05;;;;;;;17.39;47.79;102255.91;5031060;28;20037;-72
2023/05/25 00:12:42;;;;;;;183.20;65.47;;;;;;;17.38;48.51;102248.03;5029482;28;20116;-72
2023/05/25 00:15:08;;;;;;;174.15;64.28;;;;;;;17.38;47.78;102264.75;5020750;28;20112;-73
2023/05/25 00:17:41;;;;;;;163.85;61.85;;;;;;;17.37;47.92;102262.16;5030346;28;20049;-72
2023/05/25 00:20:07;;;;;;;158.88;61.75;;;;;;;17.35;48.31;102264.78;5047743;28;20044;-74
2023/05/25 00:22:36;;;;;;;165.80;62.38;;;;;;;17.35;48.46;102270.06;5028827;28;20120;-73
2023/05/25 00:25:02;;;;;;;159.15;61.58;;;;;;;17.35;48.46;102264.78;5004905;28;20053;-73
2023/05/25 00:27:29;;;;;;;163.88;61.45;;;;;;;17.34;48.35;102263.06;5025274;28;20025;-73
2023/05/25 00:29:57;;;;;;;166.93;64.10;;;;;;;17.33;48.77;102253.41;5043260;28;20088;-72
2023/05/25 00:32:23;;;;;;;171.52;63.63;;;;;;;17.34;48.05;102260.44;5026602;28;20034;-73
2023/05/25 00:34:48;;;;;;;164.15;62.80;;;;;;;17.34;47.97;102264.81;5021428;28;20069;-74
2023/05/25 00:37:14;;;;;;;162.27;62.28;;;;;;;17.32;48.00;102264.00;5013196;28;20029;-72
2023/05/25 00:39:39;;;;;;;162.27;61.05;;;;;;;17.31;47.96;102252.53;5012531;28;20033;-72
2023/05/25 00:42:06;;;;;;;165.00;62.50;;;;;;;17.31;48.48;102262.25;5022279;28;20466;-72
2023/05/25 00:44:32;;;;;;;174.55;63.28;;;;;;;17.30;48.65;102257.88;5029002;28;20458;-73
2023/05/25 00:46:58;;;;;;;164.45;65.55;;;;;;;17.28;48.27;102255.25;5027393;28;20025;-72
2023/05/25 00:49:24;;;;;;;164.38;61.83;;;;;;;17.29;48.25;102256.13;5010070;28;20025;-72
2023/05/25 00:51:53;;;;;;;162.90;61.28;;;;;;;17.28;48.52;102260.53;5012692;28;20037;-71
2023/05/25 00:54:19;;;;;;;181.20;64.47;;;;;;;17.27;48.02;102256.16;5030426;28;20096;-73
2023/05/25 00:56:51;;;;;;;165.00;62.42;;;;;;;17.27;48.58;102255.28;5031073;28;20064;-72
2023/05/25 00:59:40;;;;;;;166.25;63.05;;;;;;;17.27;48.64;102256.16;5012682;28;20017;-72
2023/05/25 01:02:10;;;;;;;172.02;62.88;;;;;;;17.26;48.29;102262.34;5042553;28;20083;-73
2023/05/25 01:04:43;;;;;;;155.52;60.42;;;;;;;17.24;48.42;102259.72;5027239;28;20030;-75
2023/05/25 01:07:11;;;;;;;167.57;63.13;;;;;;;17.24;48.57;102251.78;5021786;28;20025;-74
2023/05/25 01:09:38;;;;;;;167.43;62.50;;;;;;;17.24;48.83;102257.06;5027803;28;20052;-73
2023/05/25 01:12:05;;;;;;;163.48;61.50;;;;;;;17.23;48.63;102259.75;5024526;28;20057;-73
2023/05/25 01:14:32;;;;;;;166.10;62.80;;;;;;;17.23;48.21;102259.75;5009667;28;20536;-73
2023/05/25 01:16:57;;;;;;;168.93;63.30;;;;;;;17.22;48.77;102258.03;5009723;28;20057;-73
2023/05/25 01:19:23;;;;;;;163.30;62.20;;;;;;;17.21;48.78;102254.50;5010250;28;20036;-73
2023/05/25 01:22:02;;;;;;;166.50;63.85;;;;;;;17.21;48.15;102265.06;5012917;28;20129;-75
2023/05/25 01:24:40;;;;;;;164.25;61.30;;;;;;;17.21;48.35;102270.34;5022589;28;20034;-73
2023/05/25 01:27:18;;;;;;;165.63;62.78;;;;;;;17.20;48.41;102258.03;5032795;28;20021;-73
2023/05/25 01:29:44;;;;;;;164.20;63.05;;;;;;;17.20;48.54;102265.09;5033394;28;20049;-73
2023/05/25 01:32:12;;;;;;;159.23;61.38;;;;;;;17.19;48.38;102266.88;5047397;28;20510;-72
2023/05/25 01:34:42;;;;;;;159.70;61.03;;;;;;;17.19;48.49;102266.00;5029303;28;20048;-74
2023/05/25 01:37:07;;;;;;;165.60;63.03;;;;;;;17.17;48.36;102260.75;5032713;28;20036;-74
2023/05/25 01:39:32;;;;;;;165.98;62.03;;;;;;;17.19;48.77;102273.91;5025543;28;20132;-72
2023/05/25 01:41:58;;;;;;;173.63;62.63;;;;;;;17.17;48.40;102263.38;5032559;28;20040;-74
2023/05/25 01:44:24;;;;;;;169.43;63.92;;;;;;;17.17;49.02;102271.31;5032444;28;20124;-74
2023/05/25 01:47:02;;;;;;;161.90;61.88;;;;;;;17.16;48.43;102259.00;5016901;28;20063;-72
2023/05/25 01:49:45;;;;;;;165.45;61.20;;;;;;;17.16;49.05;102263.41;5032794;28;20549;-75
2023/05/25 01:52:16;;;;;;;167.45;62.20;;;;;;;17.15;48.86;102259.91;5029384;28;20083;-73
2023/05/25 01:54:46;;;;;;;169.88;61.58;;;;;;;17.14;48.69;102259.91;5024978;28;20022;-73
2023/05/25 01:57:16;;;;;;;216.13;69.35;;;;;;;17.14;48.91;102254.63;5055435;22;20361;-71
2023/05/25 01:59:43;;;;;;;163.20;61.53;;;;;;;17.14;48.89;102258.16;5050930;28;20041;-71
2023/05/25 02:02:09;;;;;;;161.60;61.22;;;;;;;17.14;48.61;102255.53;5040850;28;20517;-72
2023/05/25 02:04:35;;;;;;;158.07;62.15;;;;;;;17.13;49.08;102260.84;5040029;28;20181;-68
2023/05/25 02:07:02;;;;;;;160.77;59.85;;;;;;;17.13;48.86;102264.34;5040652;28;20065;-68
2023/05/25 02:09:28;;;;;;;161.07;61.38;;;;;;;17.13;48.50;102258.19;5039880;28;20025;-69
2023/05/25 02:11:53;;;;;;;166.70;61.90;;;;;;;17.12;48.53;102253.81;5051210;28;20040;-68
2023/05/25 02:14:18;;;;;;;177.95;63.40;;;;;;;17.11;48.29;102260.00;5052209;28;20014;-68
2023/05/25 02:16:44;;;;;;;159.70;61.88;;;;;;;17.11;48.36;102254.72;5053773;28;20021;-68
2023/05/25 02:19:11;;;;;;;160.43;61.05;;;;;;;17.11;48.92;102265.25;5043055;28;20037;-69
2023/05/25 02:21:37;;;;;;;161.25;61.55;;;;;;;17.10;48.79;102258.25;5036627;28;20025;-69
2023/05/25 02:24:02;;;;;;;167.57;61.60;;;;;;;17.09;48.55;102256.53;5036910;28;20486;-70
2023/05/25 02:26:28;;;;;;;160.35;60.67;;;;;;;17.06;48.72;102258.31;5045118;28;20036;-70
2023/05/25 02:28:53;;;;;;;169.65;61.75;;;;;;;17.09;48.97;102261.81;5047059;28;20032;-69
2023/05/25 02:31:19;;;;;;;159.80;61.03;;;;;;;17.08;48.52;102262.69;5053051;28;20020;-70
2023/05/25 02:33:44;;;;;;;159.27;60.15;;;;;;;17.08;49.10;102273.25;5051607;28;20466;-69
2023/05/25 02:36:09;;;;;;;162.80;61.50;;;;;;;17.09;48.89;102267.09;5051903;28;20151;-70
2023/05/25 02:38:35;;;;;;;154.68;59.97;;;;;;;17.05;48.22;102261.84;5050780;28;20432;-69
2023/05/25 02:41:00;;;;;;;162.55;60.38;;;;;;;17.06;48.91;102262.72;5052441;28;20029;-70
2023/05/25 02:43:25;;;;;;;160.90;59.67;;;;;;;17.08;48.47;102260.06;5050608;28;20029;-70
2023/05/25 02:45:51;;;;;;;158.55;59.42;;;;;;;17.05;48.68;102260.97;5047703;28;20025;-69
2023/05/25 02:48:16;;;;;;;164.75;60.78;;;;;;;17.05;48.96;102269.75;5050624;28;20044;-70
2023/05/25 02:50:41;;;;;;;167.45;61.53;;;;;;;17.04;48.66;102270.69;5051447;28;20021;-70
2023/05/25 02:53:07;;;;;;;159.25;61.08;;;;;;;17.04;48.82;102267.16;5050358;28;20040;-70
2023/05/25 02:55:32;;;;;;;166.02;61.28;;;;;;;17.03;48.98;102268.94;5043611;28;20032;-70
2023/05/25 02:57:58;;;;;;;160.43;60.90;;;;;;;17.04;48.99;102272.44;5049765;28;20031;-70
2023/05/25 03:00:24;;;;;;;159.52;60.80;;;;;;;17.04;48.88;102269.78;5050043;28;20120;-69
2023/05/25 03:02:49;;;;;;;162.43;60.92;;;;;;;17.03;49.29;102274.22;5051297;28;20178;-69
2023/05/25 03:05:16;;;;;;;162.20;61.15;;;;;;;17.02;48.64;102271.59;5052393;28;20025;-69
2023/05/25 03:07:42;;;;;;;171.77;62.13;;;;;;;17.02;48.92;102290.06;5050804;28;20115;-69
2023/05/25 03:10:08;;;;;;;168.98;60.38;;;;;;;17.02;49.14;102285.66;5051904;28;20096;-69
2023/05/25 03:12:34;;;;;;;160.35;61.58;;;;;;;17.02;48.96;102293.56;5049860;28;20025;-70
2023/05/25 03:14:59;;;;;;;165.32;61.58;;;;;;;17.02;48.88;102292.72;5048832;28;20078;-69
2023/05/25 03:17:25;;;;;;;161.68;61.08;;;;;;;17.03;49.07;102290.03;5040494;28;20100;-70
2023/05/25 03:19:51;;;;;;;165.52;61.35;;;;;;;17.02;49.04;102288.28;5041311;28;20157;-70
2023/05/25 03:22:16;;;;;;;158.48;59.63;;;;;;;17.01;48.95;102291.81;5055794;28;20039;-69
2023/05/25 03:24:41;;;;;;;158.27;60.78;;;;;;;17.03;49.39;102292.69;5052107;28;20116;-70
2023/05/25 03:27:07;;;;;;;164.18;60.83;;;;;;;17.02;48.61;102290.06;5044692;28;20115;-69
2023/05/25 03:29:32;;;;;;;161.88;61.55;;;;;;;17.03;49.01;102289.19;5050123;28;20457;-69
2023/05/25 03:31:58;;;;;;;156.10;59.80;;;;;;;17.05;49.19;102300.56;5049317;28;20087;-70
2023/05/25 03:34:23;;;;;;;170.02;62.67;;;;;;;17.05;48.36;102300.56;5049027;28;20537;-69
2023/05/25 03:36:49;;;;;;;172.98;62.55;;;;;;;17.05;49.28;102301.44;5047602;28;20025;-69
2023/05/25 03:39:14;;;;;;;160.82;61.75;;;;;;;17.05;48.58;102306.72;5049827;28;20027;-69
2023/05/25 03:41:40;;;;;;;160.10;60.95;;;;;;;17.08;49.20;102297.88;5042939;28;20023;-70
2023/05/25 03:44:05;;;;;;;161.65;60.97;;;;;;;17.09;49.02;102294.34;5042513;28;20021;-70
2023/05/25 03:46:30;;;;;;;162.73;62.30;;;;;;;17.10;48.30;102300.47;5041201;28;20040;-70
2023/05/25 03:48:56;;;;;;;169.27;61.85;;;;;;;17.11;48.68;102303.13;5048699;28;20104;-70
2023/05/25 03:51:21;;;;;;;172.30;62.85;;;;;;;17.11;48.85;102305.75;5048626;28;20149;-70
2023/05/25 03:53:46;;;;;;;171.88;62.55;;;;;;;17.12;49.21;102312.75;5049777;28;20326;-70
2023/05/25 03:56:12;;;;;;;163.55;61.58;;;;;;;17.14;48.54;102304.81;5034883;28;20103;-70
2023/05/25 03:58:37;;;;;;;164.77;61.53;;;;;;;17.13;48.11;102317.16;5043733;28;20017;-70
2023/05/25 04:01:02;;;;;;;158.23;59.72;;;;;;;17.12;49.02;102319.81;5046183;28;20029;-70
2023/05/25 04:03:28;;;;;;;155.88;61.45;;;;;;;17.12;48.64;102322.47;5045915;28;20486;-70
2023/05/25 04:05:53;;;;;;;165.07;62.53;;;;;;;17.10;48.41;102327.78;5047669;28;20021;-69
2023/05/25 04:08:19;;;;;;;160.43;61.30;;;;;;;17.09;48.56;102331.28;5048015;28;20028;-70
2023/05/25 04:10:45;;;;;;;184.10;76.22;;;;;;;17.08;48.70;102329.53;5044916;28;20115;-72
2023/05/25 04:13:10;;;;;;;166.30;68.28;;;;;;;17.08;48.38;102342.75;5062128;28;20083;-71
2023/05/25 04:15:36;;;;;;;165.32;61.20;;;;;;;17.09;49.14;102335.72;5034695;28;20025;-71
2023/05/25 04:18:02;;;;;;;165.23;62.38;;;;;;;17.09;48.56;102336.56;5031259;28;20022;-71
2023/05/25 04:20:27;;;;;;;161.77;61.17;;;;;;;17.10;48.92;102337.44;5032181;28;20132;-72
2023/05/25 04:22:53;;;;;;;160.98;59.90;;;;;;;17.09;48.31;102335.72;5045530;28;20435;-71
2023/05/25 04:25:20;;;;;;;167.95;62.85;;;;;;;17.10;48.82;102342.72;5050748;28;20100;-72
2023/05/25 04:27:46;;;;;;;164.23;62.35;;;;;;;17.11;48.16;102333.91;5050316;28;20144;-71
2023/05/25 04:30:12;;;;;;;184.55;65.57;;;;;;;17.13;48.69;102340.03;5048777;28;20100;-71
2023/05/25 04:32:38;;;;;;;172.20;62.35;;;;;;;17.17;48.64;102339.09;5047119;28;20021;-71
2023/05/25 04:35:04;;;;;;;156.02;60.30;;;;;;;17.21;48.25;102343.41;5044390;28;20032;-71
2023/05/25 04:37:31;;;;;;;161.70;61.00;;;;;;;17.26;48.38;102336.28;5040688;28;20506;-71
2023/05/25 04:39:57;;;;;;;157.93;60.28;;;;;;;17.31;48.09;102346.75;5050138;28;20131;-71
2023/05/25 04:42:22;;;;;;;162.15;61.15;;;;;;;17.34;47.46;102344.94;5049855;28;20549;-72
2023/05/25 04:44:48;;;;;;;158.82;60.00;;;;;;;17.39;47.64;102351.00;5034135;28;20021;-71
2023/05/25 04:47:15;;;;;;;164.00;61.35;;;;;;;17.45;47.72;102350.03;5049263;28;20021;-71
2023/05/25 04:49:40;;;;;;;177.48;63.92;;;;;;;17.52;47.88;102348.13;5046960;28;20051;-71
2023/05/25 04:52:05;;;;;;;162.90;61.65;;;;;;;17.57;47.87;102352.44;5045452;28;20494;-71
2023/05/25 04:54:31;;;;;;;160.52;60.47;;;;;;;17.62;47.59;102357.63;5048336;28;20025;-71
2023/05/25 04:56:56;;;;;;;157.98;60.00;;;;;;;17.65;46.89;102357.56;5048508;28;20051;-71
2023/05/25 04:59:21;;;;;;;165.25;61.88;;;;;;;17.67;47.11;102349.59;5054616;28;20039;-71
2023/05/25 05:01:47;;;;;;;162.75;61.40;;;;;;;17.69;46.72;102348.66;5055145;28;20028;-72
2023/05/25 05:04:15;;;;;;;185.10;63.88;;;;;;;17.70;47.24;102350.41;5054067;28;20017;-72
2023/05/25 05:06:40;;;;;;;162.23;61.35;;;;;;;17.71;46.75;102352.16;5053848;28;20032;-72
2023/05/25 05:09:06;;;;;;;159.82;61.20;;;;;;;17.71;47.42;102354.81;5053307;28;20029;-72
2023/05/25 05:11:31;;;;;;;174.27;64.10;;;;;;;17.72;47.16;102353.91;5053837;28;20056;-72
2023/05/25 05:13:57;;;;;;;170.23;62.78;;;;;;;17.78;46.41;102354.66;5053713;28;20025;-72
2023/05/25 05:16:23;;;;;;;162.02;62.45;;;;;;;17.81;46.74;102351.97;5054055;28;20017;-72
2023/05/25 05:18:48;;;;;;;159.23;61.60;;;;;;;17.83;46.41;102358.09;5054898;28;20051;-71
2023/05/25 05:21:13;;;;;;;159.65;60.58;;;;;;;17.84;46.94;102352.78;5053658;28;20075;-71
2023/05/25 05:23:41;;;;;;;164.63;60.75;;;;;;;17.85;47.05;102369.53;5054954;28;20025;-71
2023/05/25 05:26:09;;;;;;;165.07;60.83;;;;;;;17.86;46.25;102365.94;5054206;28;20033;-71
2023/05/25 05:28:35;;;;;;;163.77;62.20;;;;;;;17.86;46.19;102366.84;5053571;28;20036;-71
2023/05/25 05:31:00;;;;;;;168.90;62.70;;;;;;;17.87;46.74;102368.59;5053257;28;20390;-71
2023/05/25 05:33:25;;;;;;;159.93;61.58;;;;;;;17.89;46.17;102368.56;5053191;28;20017;-71
2023/05/25 05:35:51;;;;;;;153.80;60.10;;;;;;;17.90;46.62;102367.63;5054353;28;20083;-71
2023/05/25 05:38:16;;;;;;;162.55;61.15;;;;;;;17.92;46.76;102370.31;5054357;28;20016;-71
2023/05/25 05:40:42;;;;;;;167.57;61.33;;;;;;;17.94;46.66;102371.13;5054153;28;20064;-71
2023/05/25 05:43:11;;;;;;;162.20;61.22;;;;;;;17.96;46.35;102371.97;5054796;28;20021;-71
2023/05/25 05:45:37;;;;;;;167.90;62.40;;;;;;;17.97;46.22;102373.69;5052625;28;20510;-71
2023/05/25 05:48:08;;;;;;;159.52;60.47;;;;;;;18.01;46.67;102376.25;5052803;28;20060;-71
2023/05/25 05:50:35;;;;;;;166.70;61.60;;;;;;;18.04;46.49;102386.78;5053056;28;20037;-71
2023/05/25 05:53:00;;;;;;;156.93;60.42;;;;;;;18.07;46.11;102375.25;5054195;28;20474;-71
2023/05/25 05:55:25;;;;;;;165.07;61.38;;;;;;;18.10;46.13;102384.91;5032365;28;20125;-72
2023/05/25 05:57:50;;;;;;;165.25;60.58;;;;;;;18.10;45.94;102380.47;5032606;28;20132;-72
2023/05/25 06:00:16;;;;;;;165.77;61.60;;;;;;;18.12;45.89;102378.69;5032839;28;20108;-72
2023/05/25 06:02:42;;;;;;;160.73;61.22;;;;;;;18.15;46.36;102383.91;5034274;28;20105;-72
2023/05/25 06:05:08;;;;;;;167.63;61.38;;;;;;;18.18;46.00;102378.53;5032473;28;20021;-72
2023/05/25 06:07:34;;;;;;;160.48;60.85;;;;;;;18.23;45.52;102378.47;5036807;28;20458;-72
2023/05/25 06:09:59;;;;;;;171.07;61.70;;;;;;;18.34;45.89;102380.88;5049128;28;20090;-72
2023/05/25 06:12:25;;;;;;;172.10;62.63;;;;;;;18.52;45.24;102382.22;5051975;28;20020;-72
2023/05/25 06:14:50;;;;;;;174.85;63.88;;;;;;;18.84;43.58;102383.22;5047610;28;20057;-72
2023/05/25 06:17:16;;;;;;;173.93;63.45;;;;;;;19.19;43.49;102385.03;5051340;28;20029;-72
2023/05/25 06:19:41;;;;;;;161.75;61.15;;;;;;;19.50;42.64;102386.88;5052483;28;20021;-72
2023/05/25 06:22:07;;;;;;;166.68;61.42;;;;;;;19.74;42.19;102384.47;5051913;28;20037;-71
2023/05/25 06:24:32;;;;;;;171.35;62.38;;;;;;;19.93;41.68;102387.50;5048466;28;20493;-70
2023/05/25 06:26:57;;;;;;;162.35;61.08;;;;;;;20.10;40.93;102387.00;5052352;28;20052;-71
2023/05/25 06:29:23;;;;;;;165.50;60.80;;;;;;;20.25;40.75;102389.19;5052913;28;20449;-72
2023/05/25 06:31:48;;;;;;;161.73;60.38;;;;;;;20.35;40.29;102386.28;5050208;28;20120;-72
2023/05/25 06:34:13;;;;;;;182.80;63.10;;;;;;;20.39;40.17;102386.13;5051345;28;20497;-73
2023/05/25 06:36:39;;;;;;;162.93;61.08;;;;;;;20.47;40.60;102383.22;5031639;28;20506;-71
2023/05/25 06:39:04;;;;;;;155.10;59.55;;;;;;;20.55;40.47;102386.50;5052101;28;20031;-72
2023/05/25 06:41:29;;;;;;;165.70;61.95;;;;;;;20.63;39.93;102388.94;5053174;28;20389;-72
2023/05/25 06:43:55;;;;;;;167.38;62.53;;;;;;;20.73;39.65;102389.53;5052564;28;20525;-70
2023/05/25 06:46:20;;;;;;;160.90;60.88;;;;;;;20.81;39.57;102399.94;5052212;28;20506;-70
2023/05/25 06:48:46;;;;;;;163.30;61.70;;;;;;;20.86;39.57;102395.31;5051767;28;20408;-70
2023/05/25 06:51:11;;;;;;;166.95;66.47;;;;;;;20.92;39.27;102409.25;5034632;28;20462;-71
2023/05/25 06:53:38;;;;;;;162.73;61.15;;;;;;;20.97;39.38;102402.91;5050738;28;20032;-71
2023/05/25 06:56:03;;;;;;;169.93;62.10;;;;;;;21.00;39.32;102403.69;5051023;28;20017;-71
2023/05/25 06:58:29;;;;;;;165.02;62.33;;;;;;;20.98;39.25;102394.91;5052625;28;20241;-71
2023/05/25 07:00:54;;;;;;;166.75;63.42;;;;;;;21.01;39.34;102401.91;5052060;28;20201;-71
2023/05/25 07:03:19;;;;;;;167.05;63.03;;;;;;;21.02;38.85;102403.66;5052327;28;20503;-71
2023/05/25 07:05:45;;;;;;;161.38;61.40;;;;;;;21.04;39.33;102404.47;5050281;28;20035;-71
2023/05/25 07:08:10;;;;;;;168.43;62.75;;;;;;;21.13;39.12;102408.59;5051825;28;20025;-70
2023/05/25 07:10:35;;;;;;;170.30;63.45;;;;;;;21.17;38.97;102410.25;5050602;28;20484;-72
2023/05/25 07:13:01;;;;;;;162.55;62.05;;;;;;;21.11;39.15;102417.47;5052305;28;20529;-72
2023/05/25 07:15:26;;;;;;;166.27;63.47;;;;;;;20.99;39.42;102406.41;5050444;28;20355;-72
2023/05/25 07:17:51;;;;;;;163.38;62.55;;;;;;;20.77;39.25;102413.28;5052326;28;20025;-72
2023/05/25 07:20:17;;;;;;;176.18;64.00;;;;;;;20.76;39.95;102410.69;5052097;28;20125;-72
2023/05/25 07:22:46;;;;;;;178.55;65.18;;;;;;;20.88;39.58;102404.09;5051706;28;20107;-72
2023/05/25 07:25:11;;;;;;;179.05;64.90;;;;;;;20.91;39.64;102406.66;5050329;28;20394;-72
2023/05/25 07:27:36;;;;;;;183.15;65.03;;;;;;;20.90;39.87;102407.56;5051089;28;20029;-72
2023/05/25 07:30:02;;;;;;;174.90;64.95;;;;;;;20.93;39.47;102403.03;5050338;28;20056;-72
2023/05/25 07:32:27;;;;;;;173.23;64.32;;;;;;;20.99;39.27;102401.97;5051751;28;20429;-72
2023/05/25 07:34:53;;;;;;;176.40;66.03;;;;;;;21.05;39.20;102407.09;5052452;28;20438;-72
2023/05/25 07:37:18;;;;;;;157.90;61.83;;;;;;;21.13;39.00;102406.81;5051766;28;20060;-72
2023/05/25 07:39:43;;;;;;;163.57;63.13;;;;;;;21.00;39.43;102405.50;5052328;28;20021;-72
2023/05/25 07:42:10;;;;;;;164.25;62.88;;;;;;;20.86;39.54;102411.25;5052209;28;20056;-72
2023/05/25 07:44:35;;;;;;;160.65;61.50;;;;;;;20.76;40.00;102415.97;5051864;28;20108;-72
2023/05/25 07:47:00;;;;;;;165.50;62.75;;;;;;;20.82;39.70;102420.22;5052028;28;20067;-72
2023/05/25 07:49:26;;;;;;;161.63;61.33;;;;;;;20.92;39.76;102411.06;5052115;28;20055;-72
2023/05/25 07:51:51;;;;;;;162.18;62.10;;;;;;;20.98;39.67;102425.91;5052115;28;20036;-72
2023/05/25 07:54:16;;;;;;;180.20;64.70;;;;;;;20.92;39.55;102425.19;5051600;28;20028;-72
2023/05/25 07:56:42;;;;;;;160.48;62.10;;;;;;;20.88;39.92;102425.34;5051965;28;20025;-71
2023/05/25 07:59:07;;;;;;;163.90;62.70;;;;;;;20.95;39.67;102426.88;5071213;22;20052;-75
2023/05/25 08:01:32;;;;;;;167.00;63.65;;;;;;;21.06;39.53;102430.03;5050905;28;20029;-74
2023/05/25 08:03:58;;;;;;;161.48;62.42;;;;;;;21.16;39.59;102440.38;5032976;28;20032;-75
2023/05/25 08:06:23;;;;;;;163.57;63.45;;;;;;;21.21;39.18;102435.78;5049591;28;20029;-74
2023/05/25 08:08:48;;;;;;;162.25;62.75;;;;;;;21.26;39.05;102434.69;5049729;28;20028;-74
2023/05/25 08:11:15;;;;;;;176.15;65.05;;;;;;;21.28;39.15;102430.22;5049782;28;20068;-74
2023/05/25 08:13:41;;;;;;;155.77;64.40;;;;;;;21.31;39.22;102439.88;5049838;28;20633;-74
2023/05/25 08:16:07;;;;;;;162.73;64.07;;;;;;;21.35;39.03;102440.63;5049282;28;20021;-74
2023/05/25 08:18:32;;;;;;;165.05;64.22;;;;;;;21.30;39.12;102448.75;5033040;28;20027;-74
2023/05/25 08:20:58;;;;;;;168.70;64.55;;;;;;;21.19;39.18;102445.63;5049658;28;20029;-74
2023/05/25 08:23:23;;;;;;;165.65;64.70;;;;;;;21.16;39.32;102446.56;5049647;28;20078;-74
2023/05/25 08:25:48;;;;;;;171.02;64.55;;;;;;;21.20;39.37;102447.31;5050364;28;20031;-74
2023/05/25 08:28:14;;;;;;;166.85;65.40;;;;;;;21.25;39.36;102445.38;5032792;28;20021;-74
2023/05/25 08:30:40;;;;;;;168.63;64.15;;;;;;;21.28;39.02;102439.97;5053075;28;20033;-74
2023/05/25 08:33:05;;;;;;;165.45;63.95;;;;;;;21.21;39.41;102446.41;5039645;28;20051;-74
2023/05/25 08:35:31;;;;;;;170.68;64.18;;;;;;;21.11;39.52;102448.50;5056936;28;20043;-74
2023/05/25 08:37:56;;;;;;;171.75;64.15;;;;;;;21.09;39.82;102448.56;5057197;28;20107;-74
2023/05/25 08:40:22;;;;;;;164.95;64.03;;;;;;;21.16;39.16;102443.03;5057266;28;20067;-74
2023/05/25 08:42:47;;;;;;;158.85;63.63;;;;;;;21.20;39.21;102442.00;5056082;28;20474;-74
2023/05/25 08:45:13;;;;;;;156.90;62.60;;;;;;;21.24;39.22;102443.63;5055614;28;20033;-74
2023/05/25 08:47:43;;;;;;;162.55;63.58;;;;;;;21.25;39.51;102445.38;5039251;28;20055;-74
2023/05/25 08:50:09;;;;;;;161.93;63.17;;;;;;;21.23;39.19;102449.91;5039555;28;20512;-74
2023/05/25 08:52:37;;;;;;;159.68;63.28;;;;;;;21.16;39.45;102451.91;5056046;28;20111;-74
2023/05/25 08:55:05;;;;;;;166.90;63.72;;;;;;;21.08;39.64;102454.78;5038803;28;20051;-74
2023/05/25 08:57:53;;;;;;;168.83;64.67;;;;;;;21.10;39.90;102447.66;5018907;28;1056651;-74
2023/05/25 09:00:21;;;;;;;163.88;63.22;;;;;;;21.15;39.71;102451.94;5057974;28;20040;-74
2023/05/25 09:02:54;;;;;;;161.00;62.65;;;;;;;21.15;39.48;102450.16;5040033;28;20478;-73
2023/05/25 09:05:21;;;;;;;162.30;63.60;;;;;;;21.16;39.64;102451.00;5057704;28;20431;-73
2023/05/25 09:07:46;;;;;;;167.05;62.78;;;;;;;21.16;39.46;102456.31;5056718;28;20492;-72
2023/05/25 09:10:13;;;;;;;166.10;64.60;;;;;;;21.16;39.67;102456.31;5040081;28;20029;-73
2023/05/25 09:12:40;;;;;;;180.75;65.78;;;;;;;21.15;39.49;102465.22;5056336;28;20032;-74
2023/05/25 09:15:07;;;;;;;163.43;63.33;;;;;;;21.05;39.86;102464.63;5039431;28;20078;-73
2023/05/25 09:17:32;;;;;;;164.82;62.58;;;;;;;20.95;39.75;102469.38;5056464;28;20028;-73
2023/05/25 09:19:58;;;;;;;158.98;62.47;;;;;;;20.90;39.92;102471.31;5057987;28;20424;-73
2023/05/25 09:22:23;;;;;;;164.20;62.55;;;;;;;20.92;39.98;102469.50;5056464;28;20131;-73
2023/05/25 09:24:48;;;;;;;163.77;62.45;;;;;;;20.94;40.26;102462.31;5056375;28;20104;-74
2023/05/25 09:27:19;;;;;;;161.57;63.10;;;;;;;20.94;39.85;102472.94;5056610;28;20048;-74
2023/05/25 09:29:49;;;;;;;163.10;62.45;;;;;;;20.90;39.96;102477.50;5056669;28;20024;-74
2023/05/25 09:32:15;;;;;;;161.40;62.88;;;;;;;20.92;40.05;102475.66;5056603;28;20067;-74
2023/05/25 09:34:45;;;;;;;159.25;61.38;;;;;;;20.91;40.19;102478.38;5056422;28;20505;-74
2023/05/25 09:37:15;;;;;;;160.63;61.95;;;;;;;20.91;40.12;102487.22;5056737;28;20482;-74
2023/05/25 09:39:44;;;;;;;166.80;63.10;;;;;;;20.93;40.13;102479.19;5056458;28;20029;-74
2023/05/25 09:42:10;;;;;;;166.65;62.58;;;;;;;20.95;39.86;102480.00;5053328;28;20025;-72
2023/05/25 09:44:35;;;;;;;162.95;62.60;;;;;;;20.96;40.24;102475.59;5053011;28;20159;-73
2023/05/25 09:47:01;;;;;;;164.68;62.35;;;;;;;20.93;40.19;102481.84;5053424;28;20025;-73
2023/05/25 09:49:27;;;;;;;166.68;62.63;;;;;;;20.89;39.95;102477.56;5053944;28;20060;-73
2023/05/25 09:51:52;;;;;;;163.27;62.33;;;;;;;20.86;40.05;102478.53;5053570;28;20108;-73
2023/05/25 09:54:17;;;;;;;175.95;64.45;;;;;;;20.83;40.12;102473.28;5053016;28;20025;-73
2023/05/25 09:56:44;;;;;;;161.95;62.80;;;;;;;20.79;40.10;102473.44;5053092;28;20029;-73
2023/05/25 09:59:10;;;;;;;162.57;63.05;;;;;;;20.77;40.35;102473.50;5054102;28;20036;-73
2023/05/25 10:01:35;;;;;;;161.07;62.03;;;;;;;20.79;40.37;102476.09;5052858;28;20083;-73
2023/05/25 10:04:01;;;;;;;160.63;61.60;;;;;;;20.74;40.88;102474.44;5053996;28;20382;-73
2023/05/25 10:06:27;;;;;;;165.18;63.67;;;;;;;20.71;40.82;102474.56;5052659;28;20500;-73
2023/05/25 10:08:56;;;;;;;165.43;62.72;;;;;;;20.64;40.76;102470.28;5052670;28;20029;-73
2023/05/25 10:11:23;;;;;;;158.50;63.25;;;;;;;20.60;40.71;102469.53;5052833;28;20028;-73
2023/05/25 10:13:50;;;;;;;163.90;62.45;;;;;;;20.55;40.51;102475.91;5052801;28;20052;-72
2023/05/25 10:16:16;;;;;;;167.10;71.65;;;;;;;20.54;40.93;102475.03;5052349;28;20029;-73
2023/05/25 10:19:03;;;;;;;191.15;68.82;;;;;;;20.53;41.19;102472.41;5051407;28;20122;-73
2023/05/25 10:21:30;;;;;;;172.18;64.32;;;;;;;20.47;41.25;102478.78;5047745;28;20030;-73
2023/05/25 10:24:04;;;;;;;163.45;61.22;;;;;;;20.40;41.20;102483.41;5031030;28;20036;-73
2023/05/25 10:26:33;;;;;;;166.95;62.75;;;;;;;20.36;41.32;102481.75;5043461;28;20040;-73
2023/05/25 10:29:00;;;;;;;170.27;63.08;;;;;;;20.39;41.49;102486.09;5037270;28;20022;-73
2023/05/25 10:31:28;;;;;;;164.23;61.63;;;;;;;20.37;41.21;102480.84;5048493;28;20021;-73
2023/05/25 10:33:53;;;;;;;159.00;62.13;;;;;;;20.38;41.11;102498.50;5029425;28;20085;-73
2023/05/25 10:36:19;;;;;;;163.68;61.83;;;;;;;20.41;41.22;102495.75;5046267;28;20487;-73
2023/05/25 10:38:45;;;;;;;168.82;63.67;;;;;;;20.43;41.52;102493.91;5050118;28;20056;-73
2023/05/25 10:41:10;;;;;;;183.13;65.32;;;;;;;20.48;40.97;102495.56;5043640;28;20508;-73
2023/05/25 10:43:36;;;;;;;167.27;62.90;;;;;;;20.54;40.94;102506.00;5050622;28;20393;-73
2023/05/25 10:46:04;;;;;;;163.25;62.17;;;;;;;20.54;41.35;102511.31;5030645;28;20509;-73
2023/05/25 10:48:39;;;;;;;170.02;64.40;;;;;;;20.54;40.94;102500.72;5038851;28;20025;-73
2023/05/25 10:51:05;;;;;;;164.40;62.28;;;;;;;20.52;41.32;102491.91;5038618;28;20366;-73
2023/05/25 10:53:31;;;;;;;166.50;62.67;;;;;;;20.50;41.56;102493.75;5067011;28;20025;-73
2023/05/25 10:56:02;;;;;;;170.73;64.32;;;;;;;20.48;41.43;102495.56;5055983;28;20020;-73
2023/05/25 10:58:28;;;;;;;173.48;64.93;;;;;;;20.43;41.14;102493.91;5041448;28;20021;-73